sensor_id;sensor_type;location;lat;lon;timestamp;P1;durP1;ratioP1;P2;durP2;ratioP2
59336;SDS011;45115;52.002;4.686;2023-05-20T00:00:52;12.13;;;4.68;;
59336;SDS011;45115;52.002;4.686;2023-05-20T00:03:19;14.82;;;5.85;;
59336;SDS011;45115;52.002;4.686;2023-05-20T00:05:45;11.85;;;5.03;;
59336;SDS011;45115;52.002;4.686;2023-05-20T00:08:13;11.23;;;5.50;;
59336;SDS011;45115;52.002;4.686;2023-05-20T00:10:40;13.02;;;5.72;;
59336;SDS011;45115;52.002;4.686;2023-05-20T00:13:07;10.70;;;4.75;;
59336;SDS011;45115;52.002;4.686;2023-05-20T00:15:33;9.55;;;4.97;;
59336;SDS011;45115;52.002;4.686;2023-05-20T00:18:00;12.23;;;5.22;;
59336;SDS011;45115;52.002;4.686;2023-05-20T00:20:28;11.55;;;4.85;;
59336;SDS011;45115;52.002;4.686;2023-05-20T00:22:55;10.18;;;4.63;;
59336;SDS011;45115;52.002;4.686;2023-05-20T00:25:22;10.73;;;5.53;;
59336;SDS011;45115;52.002;4.686;2023-05-20T00:27:49;9.13;;;5.03;;
59336;SDS011;45115;52.002;4.686;2023-05-20T00:30:16;10.88;;;5.50;;
59336;SDS011;45115;52.002;4.686;2023-05-20T00:32:42;11.80;;;5.50;;
59336;SDS011;45115;52.002;4.686;2023-05-20T00:35:09;13.15;;;5.20;;
59336;SDS011;45115;52.002;4.686;2023-05-20T00:37:37;9.40;;;5.20;;
59336;SDS011;45115;52.002;4.686;2023-05-20T00:40:04;10.00;;;5.28;;
59336;SDS011;45115;52.002;4.686;2023-05-20T00:42:33;10.95;;;5.22;;
59336;SDS011;45115;52.002;4.686;2023-05-20T00:44:59;11.65;;;5.18;;
59336;SDS011;45115;52.002;4.686;2023-05-20T00:47:27;13.65;;;5.70;;
59336;SDS011;45115;52.002;4.686;2023-05-20T00:49:56;12.07;;;4.90;;
59336;SDS011;45115;52.002;4.686;2023-05-20T00:52:22;11.18;;;5.35;;
59336;SDS011;45115;52.002;4.686;2023-05-20T00:54:50;9.75;;;4.70;;
59336;SDS011;45115;52.002;4.686;2023-05-20T00:57:18;10.95;;;5.05;;
59336;SDS011;45115;52.002;4.686;2023-05-20T00:59:46;11.98;;;5.65;;
59336;SDS011;45115;52.002;4.686;2023-05-20T01:02:13;12.77;;;5.10;;
59336;SDS011;45115;52.002;4.686;2023-05-20T01:04:39;11.02;;;5.00;;
59336;SDS011;45115;52.002;4.686;2023-05-20T01:07:11;13.07;;;5.30;;
59336;SDS011;45115;52.002;4.686;2023-05-20T01:09:39;12.05;;;5.10;;
59336;SDS011;45115;52.002;4.686;2023-05-20T01:12:08;11.00;;;5.32;;
59336;SDS011;45115;52.002;4.686;2023-05-20T01:14:40;11.00;;;5.45;;
59336;SDS011;45115;52.002;4.686;2023-05-20T01:17:14;10.25;;;4.80;;
59336;SDS011;45115;52.002;4.686;2023-05-20T01:19:42;12.95;;;6.07;;
59336;SDS011;45115;52.002;4.686;2023-05-20T01:22:11;12.35;;;5.13;;
59336;SDS011;45115;52.002;4.686;2023-05-20T01:24:41;11.68;;;5.05;;
59336;SDS011;45115;52.002;4.686;2023-05-20T01:27:08;11.68;;;5.78;;
59336;SDS011;45115;52.002;4.686;2023-05-20T01:29:35;12.73;;;5.18;;
59336;SDS011;45115;52.002;4.686;2023-05-20T01:32:04;12.90;;;5.50;;
59336;SDS011;45115;52.002;4.686;2023-05-20T01:34:33;15.73;;;5.10;;
59336;SDS011;45115;52.002;4.686;2023-05-20T01:37:01;9.50;;;4.85;;
59336;SDS011;45115;52.002;4.686;2023-05-20T01:39:29;11.00;;;5.15;;
59336;SDS011;45115;52.002;4.686;2023-05-20T01:41:58;11.52;;;5.35;;
59336;SDS011;45115;52.002;4.686;2023-05-20T01:44:28;11.25;;;5.00;;
59336;SDS011;45115;52.002;4.686;2023-05-20T01:46:55;11.23;;;5.20;;
59336;SDS011;45115;52.002;4.686;2023-05-20T01:49:22;13.10;;;5.53;;
59336;SDS011;45115;52.002;4.686;2023-05-20T01:51:49;15.27;;;6.30;;
59336;SDS011;45115;52.002;4.686;2023-05-20T01:54:15;12.23;;;5.65;;
59336;SDS011;45115;52.002;4.686;2023-05-20T01:56:42;13.57;;;5.00;;
59336;SDS011;45115;52.002;4.686;2023-05-20T01:59:10;12.73;;;5.78;;
59336;SDS011;45115;52.002;4.686;2023-05-20T02:01:38;13.57;;;5.65;;
59336;SDS011;45115;52.002;4.686;2023-05-20T02:04:04;9.77;;;5.00;;
59336;SDS011;45115;52.002;4.686;2023-05-20T02:06:31;9.73;;;5.53;;
59336;SDS011;45115;52.002;4.686;2023-05-20T02:08:57;12.38;;;5.18;;
59336;SDS011;45115;52.002;4.686;2023-05-20T02:11:24;14.30;;;5.97;;
59336;SDS011;45115;52.002;4.686;2023-05-20T02:13:53;13.20;;;5.57;;
59336;SDS011;45115;52.002;4.686;2023-05-20T02:16:21;16.25;;;5.55;;
59336;SDS011;45115;52.002;4.686;2023-05-20T02:18:49;12.48;;;5.57;;
59336;SDS011;45115;52.002;4.686;2023-05-20T02:21:17;12.10;;;5.82;;
59336;SDS011;45115;52.002;4.686;2023-05-20T02:23:44;12.85;;;5.88;;
59336;SDS011;45115;52.002;4.686;2023-05-20T02:26:10;12.13;;;5.65;;
59336;SDS011;45115;52.002;4.686;2023-05-20T02:28:37;15.23;;;5.68;;
59336;SDS011;45115;52.002;4.686;2023-05-20T02:31:07;11.75;;;5.53;;
59336;SDS011;45115;52.002;4.686;2023-05-20T02:33:35;13.27;;;5.75;;
59336;SDS011;45115;52.002;4.686;2023-05-20T02:36:02;12.95;;;5.93;;
59336;SDS011;45115;52.002;4.686;2023-05-20T02:38:29;11.50;;;5.78;;
59336;SDS011;45115;52.002;4.686;2023-05-20T02:40:56;14.85;;;6.15;;
59336;SDS011;45115;52.002;4.686;2023-05-20T02:43:24;13.30;;;6.03;;
59336;SDS011;45115;52.002;4.686;2023-05-20T02:45:51;15.02;;;5.88;;
59336;SDS011;45115;52.002;4.686;2023-05-20T02:48:18;13.57;;;5.82;;
59336;SDS011;45115;52.002;4.686;2023-05-20T02:50:46;14.20;;;6.15;;
59336;SDS011;45115;52.002;4.686;2023-05-20T02:53:13;10.93;;;5.82;;
59336;SDS011;45115;52.002;4.686;2023-05-20T02:55:39;10.85;;;5.60;;
59336;SDS011;45115;52.002;4.686;2023-05-20T02:58:06;13.27;;;5.78;;
59336;SDS011;45115;52.002;4.686;2023-05-20T03:00:33;13.52;;;5.40;;
59336;SDS011;45115;52.002;4.686;2023-05-20T03:03:05;12.23;;;5.55;;
59336;SDS011;45115;52.002;4.686;2023-05-20T03:05:32;16.48;;;6.00;;
59336;SDS011;45115;52.002;4.686;2023-05-20T03:08:05;19.17;;;7.32;;
59336;SDS011;45115;52.002;4.686;2023-05-20T03:10:34;12.70;;;5.68;;
59336;SDS011;45115;52.002;4.686;2023-05-20T03:13:01;16.98;;;6.22;;
59336;SDS011;45115;52.002;4.686;2023-05-20T03:15:27;16.20;;;6.20;;
59336;SDS011;45115;52.002;4.686;2023-05-20T03:17:54;17.63;;;6.20;;
59336;SDS011;45115;52.002;4.686;2023-05-20T03:20:21;12.23;;;5.35;;
59336;SDS011;45115;52.002;4.686;2023-05-20T03:22:48;16.45;;;5.82;;
59336;SDS011;45115;52.002;4.686;2023-05-20T03:25:16;13.45;;;5.90;;
59336;SDS011;45115;52.002;4.686;2023-05-20T03:27:43;14.88;;;5.97;;
59336;SDS011;45115;52.002;4.686;2023-05-20T03:30:10;15.52;;;6.63;;
59336;SDS011;45115;52.002;4.686;2023-05-20T03:32:38;17.05;;;6.00;;
59336;SDS011;45115;52.002;4.686;2023-05-20T03:35:05;14.98;;;6.97;;
59336;SDS011;45115;52.002;4.686;2023-05-20T03:37:33;16.13;;;6.70;;
59336;SDS011;45115;52.002;4.686;2023-05-20T03:39:59;14.23;;;6.20;;
59336;SDS011;45115;52.002;4.686;2023-05-20T03:42:27;15.73;;;6.10;;
59336;SDS011;45115;52.002;4.686;2023-05-20T03:44:54;14.75;;;6.57;;
59336;SDS011;45115;52.002;4.686;2023-05-20T03:47:21;13.30;;;5.85;;
59336;SDS011;45115;52.002;4.686;2023-05-20T03:49:48;17.65;;;5.95;;
59336;SDS011;45115;52.002;4.686;2023-05-20T03:52:15;12.15;;;5.70;;
59336;SDS011;45115;52.002;4.686;2023-05-20T03:54:41;13.05;;;5.50;;
59336;SDS011;45115;52.002;4.686;2023-05-20T03:57:09;13.52;;;5.90;;
59336;SDS011;45115;52.002;4.686;2023-05-20T03:59:37;12.30;;;5.97;;
59336;SDS011;45115;52.002;4.686;2023-05-20T04:02:04;15.25;;;6.25;;
59336;SDS011;45115;52.002;4.686;2023-05-20T04:04:31;14.65;;;6.20;;
59336;SDS011;45115;52.002;4.686;2023-05-20T04:06:57;15.95;;;5.95;;
59336;SDS011;45115;52.002;4.686;2023-05-20T04:09:25;16.30;;;6.55;;
59336;SDS011;45115;52.002;4.686;2023-05-20T04:11:51;15.95;;;6.00;;
59336;SDS011;45115;52.002;4.686;2023-05-20T04:14:18;13.38;;;5.85;;
59336;SDS011;45115;52.002;4.686;2023-05-20T04:16:46;16.30;;;6.70;;
59336;SDS011;45115;52.002;4.686;2023-05-20T04:19:14;14.38;;;6.13;;
59336;SDS011;45115;52.002;4.686;2023-05-20T04:21:43;11.52;;;5.20;;
59336;SDS011;45115;52.002;4.686;2023-05-20T04:24:11;11.93;;;6.07;;
59336;SDS011;45115;52.002;4.686;2023-05-20T04:26:37;12.73;;;5.78;;
59336;SDS011;45115;52.002;4.686;2023-05-20T04:29:04;13.27;;;5.45;;
59336;SDS011;45115;52.002;4.686;2023-05-20T04:31:32;13.48;;;5.35;;
59336;SDS011;45115;52.002;4.686;2023-05-20T04:34:00;12.57;;;5.30;;
59336;SDS011;45115;52.002;4.686;2023-05-20T04:36:27;11.25;;;5.28;;
59336;SDS011;45115;52.002;4.686;2023-05-20T04:38:54;11.45;;;5.22;;
59336;SDS011;45115;52.002;4.686;2023-05-20T04:41:21;10.57;;;5.53;;
59336;SDS011;45115;52.002;4.686;2023-05-20T04:43:48;15.02;;;5.75;;
59336;SDS011;45115;52.002;4.686;2023-05-20T04:46:15;11.70;;;6.07;;
59336;SDS011;45115;52.002;4.686;2023-05-20T04:48:41;11.68;;;5.30;;
59336;SDS011;45115;52.002;4.686;2023-05-20T04:51:10;9.90;;;5.00;;
59336;SDS011;45115;52.002;4.686;2023-05-20T04:53:36;12.95;;;5.75;;
59336;SDS011;45115;52.002;4.686;2023-05-20T04:56:04;12.85;;;5.47;;
59336;SDS011;45115;52.002;4.686;2023-05-20T04:58:32;13.65;;;5.30;;
59336;SDS011;45115;52.002;4.686;2023-05-20T05:00:59;10.30;;;5.03;;
59336;SDS011;45115;52.002;4.686;2023-05-20T05:03:27;10.90;;;5.25;;
59336;SDS011;45115;52.002;4.686;2023-05-20T05:05:55;13.48;;;5.85;;
59336;SDS011;45115;52.002;4.686;2023-05-20T05:08:24;10.93;;;5.15;;
59336;SDS011;45115;52.002;4.686;2023-05-20T05:10:51;13.82;;;6.22;;
59336;SDS011;45115;52.002;4.686;2023-05-20T05:13:19;10.07;;;5.32;;
59336;SDS011;45115;52.002;4.686;2023-05-20T05:15:48;10.00;;;5.13;;
59336;SDS011;45115;52.002;4.686;2023-05-20T05:18:23;10.68;;;5.40;;
59336;SDS011;45115;52.002;4.686;2023-05-20T05:20:57;10.45;;;5.47;;
59336;SDS011;45115;52.002;4.686;2023-05-20T05:23:26;8.65;;;5.00;;
59336;SDS011;45115;52.002;4.686;2023-05-20T05:25:53;11.25;;;5.28;;
59336;SDS011;45115;52.002;4.686;2023-05-20T05:28:20;11.90;;;4.82;;
59336;SDS011;45115;52.002;4.686;2023-05-20T05:30:47;11.95;;;5.57;;
59336;SDS011;45115;52.002;4.686;2023-05-20T05:33:14;9.60;;;4.75;;
59336;SDS011;45115;52.002;4.686;2023-05-20T05:35:41;13.15;;;4.88;;
59336;SDS011;45115;52.002;4.686;2023-05-20T05:38:08;10.13;;;4.80;;
59336;SDS011;45115;52.002;4.686;2023-05-20T05:40:36;9.50;;;4.82;;
59336;SDS011;45115;52.002;4.686;2023-05-20T05:43:03;11.98;;;5.38;;
59336;SDS011;45115;52.002;4.686;2023-05-20T05:45:30;9.82;;;5.03;;
59336;SDS011;45115;52.002;4.686;2023-05-20T05:47:57;10.32;;;4.95;;
59336;SDS011;45115;52.002;4.686;2023-05-20T05:50:24;13.40;;;5.07;;
59336;SDS011;45115;52.002;4.686;2023-05-20T05:52:51;10.23;;;4.97;;
59336;SDS011;45115;52.002;4.686;2023-05-20T05:55:19;9.85;;;5.03;;
59336;SDS011;45115;52.002;4.686;2023-05-20T05:57:50;11.17;;;4.87;;
59336;SDS011;45115;52.002;4.686;2023-05-20T06:00:17;12.07;;;5.28;;
59336;SDS011;45115;52.002;4.686;2023-05-20T06:02:44;9.73;;;4.57;;
59336;SDS011;45115;52.002;4.686;2023-05-20T06:05:15;10.57;;;4.70;;
59336;SDS011;45115;52.002;4.686;2023-05-20T06:07:43;10.75;;;4.90;;
59336;SDS011;45115;52.002;4.686;2023-05-20T06:10:10;8.23;;;4.70;;
59336;SDS011;45115;52.002;4.686;2023-05-20T06:12:37;11.13;;;5.03;;
59336;SDS011;45115;52.002;4.686;2023-05-20T06:15:06;10.07;;;4.90;;
59336;SDS011;45115;52.002;4.686;2023-05-20T06:17:34;11.52;;;5.22;;
59336;SDS011;45115;52.002;4.686;2023-05-20T06:20:01;9.02;;;4.95;;
59336;SDS011;45115;52.002;4.686;2023-05-20T06:22:28;12.43;;;5.40;;
59336;SDS011;45115;52.002;4.686;2023-05-20T06:24:55;8.80;;;4.63;;
59336;SDS011;45115;52.002;4.686;2023-05-20T06:27:24;9.82;;;5.43;;
59336;SDS011;45115;52.002;4.686;2023-05-20T06:29:52;11.20;;;5.55;;
59336;SDS011;45115;52.002;4.686;2023-05-20T06:32:20;10.95;;;5.22;;
59336;SDS011;45115;52.002;4.686;2023-05-20T06:34:48;9.88;;;4.72;;
59336;SDS011;45115;52.002;4.686;2023-05-20T06:37:15;10.70;;;5.40;;
59336;SDS011;45115;52.002;4.686;2023-05-20T06:39:42;10.68;;;4.93;;
59336;SDS011;45115;52.002;4.686;2023-05-20T06:42:11;12.70;;;5.63;;
59336;SDS011;45115;52.002;4.686;2023-05-20T06:44:45;9.82;;;5.07;;
59336;SDS011;45115;52.002;4.686;2023-05-20T06:47:45;9.52;;;5.10;;
59336;SDS011;45115;52.002;4.686;2023-05-20T06:50:13;12.43;;;5.53;;
59336;SDS011;45115;52.002;4.686;2023-05-20T06:52:54;9.68;;;4.75;;
59336;SDS011;45115;52.002;4.686;2023-05-20T06:55:24;8.25;;;4.63;;
59336;SDS011;45115;52.002;4.686;2023-05-20T06:57:52;9.40;;;4.65;;
59336;SDS011;45115;52.002;4.686;2023-05-20T07:00:19;10.85;;;4.90;;
59336;SDS011;45115;52.002;4.686;2023-05-20T07:02:47;8.02;;;4.93;;
59336;SDS011;45115;52.002;4.686;2023-05-20T07:05:15;9.73;;;5.22;;
59336;SDS011;45115;52.002;4.686;2023-05-20T07:07:43;9.63;;;4.90;;
59336;SDS011;45115;52.002;4.686;2023-05-20T07:10:10;9.95;;;4.88;;
59336;SDS011;45115;52.002;4.686;2023-05-20T07:12:37;10.07;;;5.53;;
59336;SDS011;45115;52.002;4.686;2023-05-20T07:15:04;10.52;;;5.38;;
59336;SDS011;45115;52.002;4.686;2023-05-20T07:17:32;10.45;;;5.30;;
59336;SDS011;45115;52.002;4.686;2023-05-20T07:20:00;12.95;;;5.55;;
59336;SDS011;45115;52.002;4.686;2023-05-20T07:22:28;10.73;;;5.32;;
59336;SDS011;45115;52.002;4.686;2023-05-20T07:25:06;8.75;;;4.85;;
59336;SDS011;45115;52.002;4.686;2023-05-20T07:27:35;9.07;;;4.68;;
59336;SDS011;45115;52.002;4.686;2023-05-20T07:30:02;9.85;;;5.50;;
59336;SDS011;45115;52.002;4.686;2023-05-20T07:32:30;10.38;;;5.50;;
59336;SDS011;45115;52.002;4.686;2023-05-20T07:34:57;9.38;;;5.30;;
59336;SDS011;45115;52.002;4.686;2023-05-20T07:37:25;8.75;;;5.03;;
59336;SDS011;45115;52.002;4.686;2023-05-20T07:39:52;13.98;;;5.20;;
59336;SDS011;45115;52.002;4.686;2023-05-20T07:42:20;11.57;;;5.15;;
59336;SDS011;45115;52.002;4.686;2023-05-20T07:44:50;10.57;;;4.88;;
59336;SDS011;45115;52.002;4.686;2023-05-20T07:47:17;8.15;;;5.13;;
59336;SDS011;45115;52.002;4.686;2023-05-20T07:49:43;8.20;;;4.78;;
59336;SDS011;45115;52.002;4.686;2023-05-20T07:52:11;9.13;;;5.20;;
59336;SDS011;45115;52.002;4.686;2023-05-20T07:54:39;11.18;;;5.00;;
59336;SDS011;45115;52.002;4.686;2023-05-20T07:57:06;10.45;;;5.05;;
59336;SDS011;45115;52.002;4.686;2023-05-20T07:59:33;8.77;;;4.70;;
59336;SDS011;45115;52.002;4.686;2023-05-20T08:02:00;10.68;;;5.15;;
59336;SDS011;45115;52.002;4.686;2023-05-20T08:04:27;9.07;;;4.72;;
59336;SDS011;45115;52.002;4.686;2023-05-20T08:06:55;8.57;;;4.68;;
59336;SDS011;45115;52.002;4.686;2023-05-20T08:09:36;9.70;;;5.07;;
59336;SDS011;45115;52.002;4.686;2023-05-20T08:12:04;9.55;;;4.90;;
59336;SDS011;45115;52.002;4.686;2023-05-20T08:14:31;12.43;;;5.32;;
59336;SDS011;45115;52.002;4.686;2023-05-20T08:16:58;9.38;;;5.03;;
59336;SDS011;45115;52.002;4.686;2023-05-20T08:19:25;7.47;;;4.88;;
59336;SDS011;45115;52.002;4.686;2023-05-20T08:21:52;9.38;;;4.93;;
59336;SDS011;45115;52.002;4.686;2023-05-20T08:24:19;9.93;;;4.60;;
59336;SDS011;45115;52.002;4.686;2023-05-20T08:26:46;6.47;;;4.22;;
59336;SDS011;45115;52.002;4.686;2023-05-20T08:29:16;7.75;;;4.35;;
59336;SDS011;45115;52.002;4.686;2023-05-20T08:31:43;6.47;;;4.18;;
59336;SDS011;45115;52.002;4.686;2023-05-20T08:34:11;6.35;;;4.65;;
59336;SDS011;45115;52.002;4.686;2023-05-20T08:36:38;10.43;;;4.88;;
59336;SDS011;45115;52.002;4.686;2023-05-20T08:39:05;9.60;;;4.45;;
59336;SDS011;45115;52.002;4.686;2023-05-20T08:41:32;10.20;;;4.53;;
59336;SDS011;45115;52.002;4.686;2023-05-20T08:43:59;8.55;;;4.50;;
59336;SDS011;45115;52.002;4.686;2023-05-20T08:46:30;10.45;;;4.25;;
59336;SDS011;45115;52.002;4.686;2023-05-20T08:48:59;9.55;;;4.53;;
59336;SDS011;45115;52.002;4.686;2023-05-20T08:51:26;7.50;;;4.38;;
59336;SDS011;45115;52.002;4.686;2023-05-20T08:53:54;8.48;;;4.20;;
59336;SDS011;45115;52.002;4.686;2023-05-20T08:56:21;9.23;;;4.20;;
59336;SDS011;45115;52.002;4.686;2023-05-20T08:58:51;8.63;;;4.50;;
59336;SDS011;45115;52.002;4.686;2023-05-20T09:01:17;7.68;;;4.10;;
59336;SDS011;45115;52.002;4.686;2023-05-20T09:03:46;7.13;;;3.67;;
59336;SDS011;45115;52.002;4.686;2023-05-20T09:06:15;8.73;;;3.80;;
59336;SDS011;45115;52.002;4.686;2023-05-20T09:08:44;7.05;;;3.65;;
59336;SDS011;45115;52.002;4.686;2023-05-20T09:11:11;6.65;;;3.55;;
59336;SDS011;45115;52.002;4.686;2023-05-20T09:13:38;7.07;;;3.40;;
59336;SDS011;45115;52.002;4.686;2023-05-20T09:16:05;5.28;;;3.00;;
59336;SDS011;45115;52.002;4.686;2023-05-20T09:18:32;4.68;;;3.05;;
59336;SDS011;45115;52.002;4.686;2023-05-20T09:21:03;6.88;;;2.90;;
59336;SDS011;45115;52.002;4.686;2023-05-20T09:23:31;6.90;;;3.35;;
59336;SDS011;45115;52.002;4.686;2023-05-20T09:25:59;5.35;;;2.88;;
59336;SDS011;45115;52.002;4.686;2023-05-20T09:28:26;7.13;;;3.10;;
59336;SDS011;45115;52.002;4.686;2023-05-20T09:30:55;5.57;;;3.03;;
59336;SDS011;45115;52.002;4.686;2023-05-20T09:33:26;6.45;;;2.92;;
59336;SDS011;45115;52.002;4.686;2023-05-20T09:36:00;5.60;;;2.90;;
59336;SDS011;45115;52.002;4.686;2023-05-20T09:38:28;5.13;;;2.92;;
59336;SDS011;45115;52.002;4.686;2023-05-20T09:41:02;6.40;;;3.22;;
59336;SDS011;45115;52.002;4.686;2023-05-20T09:43:32;4.63;;;2.90;;
59336;SDS011;45115;52.002;4.686;2023-05-20T09:45:59;6.93;;;3.15;;
59336;SDS011;45115;52.002;4.686;2023-05-20T09:48:26;7.28;;;3.00;;
59336;SDS011;45115;52.002;4.686;2023-05-20T09:50:55;4.63;;;2.60;;
59336;SDS011;45115;52.002;4.686;2023-05-20T09:53:24;6.68;;;2.60;;
59336;SDS011;45115;52.002;4.686;2023-05-20T09:55:52;7.60;;;2.92;;
59336;SDS011;45115;52.002;4.686;2023-05-20T09:58:20;4.28;;;2.88;;
59336;SDS011;45115;52.002;4.686;2023-05-20T10:00:48;5.47;;;3.00;;
59336;SDS011;45115;52.002;4.686;2023-05-20T10:03:14;6.82;;;2.97;;
59336;SDS011;45115;52.002;4.686;2023-05-20T10:05:47;5.90;;;2.75;;
59336;SDS011;45115;52.002;4.686;2023-05-20T10:08:34;4.75;;;2.83;;
59336;SDS011;45115;52.002;4.686;2023-05-20T10:11:18;3.28;;;2.60;;
59336;SDS011;45115;52.002;4.686;2023-05-20T10:13:55;5.00;;;2.70;;
59336;SDS011;45115;52.002;4.686;2023-05-20T10:16:33;5.25;;;3.22;;
59336;SDS011;45115;52.002;4.686;2023-05-20T10:19:11;4.90;;;2.80;;
59336;SDS011;45115;52.002;4.686;2023-05-20T10:21:55;5.93;;;2.60;;
59336;SDS011;45115;52.002;4.686;2023-05-20T10:24:29;6.25;;;2.70;;
59336;SDS011;45115;52.002;4.686;2023-05-20T10:26:57;3.45;;;2.40;;
59336;SDS011;45115;52.002;4.686;2023-05-20T10:29:24;3.97;;;2.58;;
59336;SDS011;45115;52.002;4.686;2023-05-20T10:31:51;4.10;;;2.78;;
59336;SDS011;45115;52.002;4.686;2023-05-20T10:34:18;5.07;;;2.85;;
59336;SDS011;45115;52.002;4.686;2023-05-20T10:36:55;6.47;;;2.80;;
59336;SDS011;45115;52.002;4.686;2023-05-20T10:39:24;6.93;;;2.83;;
59336;SDS011;45115;52.002;4.686;2023-05-20T10:41:53;6.80;;;2.80;;
59336;SDS011;45115;52.002;4.686;2023-05-20T10:44:39;6.85;;;2.60;;
59336;SDS011;45115;52.002;4.686;2023-05-20T10:47:06;6.30;;;2.90;;
59336;SDS011;45115;52.002;4.686;2023-05-20T10:49:33;4.95;;;2.95;;
59336;SDS011;45115;52.002;4.686;2023-05-20T10:52:00;5.07;;;2.75;;
59336;SDS011;45115;52.002;4.686;2023-05-20T10:54:27;7.45;;;2.92;;
59336;SDS011;45115;52.002;4.686;2023-05-20T10:56:55;3.42;;;2.53;;
59336;SDS011;45115;52.002;4.686;2023-05-20T10:59:22;7.53;;;2.70;;
59336;SDS011;45115;52.002;4.686;2023-05-20T11:01:48;3.95;;;3.00;;
59336;SDS011;45115;52.002;4.686;2023-05-20T11:04:15;4.30;;;3.05;;
59336;SDS011;45115;52.002;4.686;2023-05-20T11:06:48;5.57;;;2.80;;
59336;SDS011;45115;52.002;4.686;2023-05-20T11:09:15;4.35;;;2.70;;
59336;SDS011;45115;52.002;4.686;2023-05-20T11:11:42;6.10;;;3.65;;
59336;SDS011;45115;52.002;4.686;2023-05-20T11:14:10;7.03;;;3.55;;
59336;SDS011;45115;52.002;4.686;2023-05-20T11:16:39;6.65;;;3.33;;
59336;SDS011;45115;52.002;4.686;2023-05-20T11:19:06;7.07;;;3.15;;
59336;SDS011;45115;52.002;4.686;2023-05-20T11:21:32;3.60;;;2.90;;
59336;SDS011;45115;52.002;4.686;2023-05-20T11:23:59;4.15;;;2.85;;
59336;SDS011;45115;52.002;4.686;2023-05-20T11:26:26;5.65;;;3.28;;
59336;SDS011;45115;52.002;4.686;2023-05-20T11:28:54;4.78;;;2.95;;
59336;SDS011;45115;52.002;4.686;2023-05-20T11:31:23;4.13;;;2.83;;
59336;SDS011;45115;52.002;4.686;2023-05-20T11:33:50;3.90;;;2.90;;
59336;SDS011;45115;52.002;4.686;2023-05-20T11:36:17;6.90;;;3.08;;
59336;SDS011;45115;52.002;4.686;2023-05-20T11:38:44;8.13;;;3.17;;
59336;SDS011;45115;52.002;4.686;2023-05-20T11:41:11;6.90;;;3.17;;
59336;SDS011;45115;52.002;4.686;2023-05-20T11:43:38;6.85;;;3.17;;
59336;SDS011;45115;52.002;4.686;2023-05-20T11:46:06;3.58;;;2.75;;
59336;SDS011;45115;52.002;4.686;2023-05-20T11:48:36;4.15;;;2.90;;
59336;SDS011;45115;52.002;4.686;2023-05-20T11:51:02;7.50;;;3.67;;
59336;SDS011;45115;52.002;4.686;2023-05-20T11:53:29;6.03;;;2.78;;
59336;SDS011;45115;52.002;4.686;2023-05-20T11:55:56;4.80;;;3.08;;
59336;SDS011;45115;52.002;4.686;2023-05-20T11:58:24;5.45;;;2.90;;
59336;SDS011;45115;52.002;4.686;2023-05-20T12:00:52;4.82;;;2.80;;
59336;SDS011;45115;52.002;4.686;2023-05-20T12:03:19;3.53;;;2.55;;
59336;SDS011;45115;52.002;4.686;2023-05-20T12:05:47;5.95;;;2.72;;
59336;SDS011;45115;52.002;4.686;2023-05-20T12:08:15;5.32;;;3.05;;
59336;SDS011;45115;52.002;4.686;2023-05-20T12:10:42;3.42;;;2.85;;
59336;SDS011;45115;52.002;4.686;2023-05-20T12:13:11;5.25;;;3.13;;
59336;SDS011;45115;52.002;4.686;2023-05-20T12:15:38;4.20;;;2.65;;
59336;SDS011;45115;52.002;4.686;2023-05-20T12:18:05;3.47;;;2.88;;
59336;SDS011;45115;52.002;4.686;2023-05-20T12:20:31;5.50;;;3.15;;
59336;SDS011;45115;52.002;4.686;2023-05-20T12:22:59;5.28;;;2.80;;
59336;SDS011;45115;52.002;4.686;2023-05-20T12:25:26;3.97;;;2.35;;
59336;SDS011;45115;52.002;4.686;2023-05-20T12:27:53;5.03;;;2.95;;
59336;SDS011;45115;52.002;4.686;2023-05-20T12:30:21;6.28;;;3.40;;
59336;SDS011;45115;52.002;4.686;2023-05-20T12:32:49;4.93;;;2.90;;
59336;SDS011;45115;52.002;4.686;2023-05-20T12:35:16;5.78;;;3.40;;
59336;SDS011;45115;52.002;4.686;2023-05-20T12:37:44;6.75;;;3.00;;
59336;SDS011;45115;52.002;4.686;2023-05-20T12:40:12;6.53;;;3.00;;
59336;SDS011;45115;52.002;4.686;2023-05-20T12:42:39;4.97;;;3.00;;
59336;SDS011;45115;52.002;4.686;2023-05-20T12:45:07;5.03;;;2.80;;
59336;SDS011;45115;52.002;4.686;2023-05-20T12:47:34;4.68;;;3.10;;
59336;SDS011;45115;52.002;4.686;2023-05-20T12:50:02;3.47;;;2.83;;
59336;SDS011;45115;52.002;4.686;2023-05-20T12:52:29;5.05;;;2.78;;
59336;SDS011;45115;52.002;4.686;2023-05-20T12:54:55;7.32;;;3.13;;
59336;SDS011;45115;52.002;4.686;2023-05-20T12:57:24;3.88;;;2.90;;
59336;SDS011;45115;52.002;4.686;2023-05-20T12:59:51;4.32;;;2.85;;
59336;SDS011;45115;52.002;4.686;2023-05-20T13:02:17;4.72;;;2.78;;
59336;SDS011;45115;52.002;4.686;2023-05-20T13:04:44;4.82;;;2.97;;
59336;SDS011;45115;52.002;4.686;2023-05-20T13:07:11;5.55;;;3.13;;
59336;SDS011;45115;52.002;4.686;2023-05-20T13:09:37;4.25;;;2.92;;
59336;SDS011;45115;52.002;4.686;2023-05-20T13:12:04;7.10;;;3.25;;
59336;SDS011;45115;52.002;4.686;2023-05-20T13:14:33;4.80;;;2.65;;
59336;SDS011;45115;52.002;4.686;2023-05-20T13:16:59;4.88;;;2.90;;
59336;SDS011;45115;52.002;4.686;2023-05-20T13:19:26;4.28;;;2.60;;
59336;SDS011;45115;52.002;4.686;2023-05-20T13:21:53;5.28;;;2.85;;
59336;SDS011;45115;52.002;4.686;2023-05-20T13:24:20;5.68;;;2.80;;
59336;SDS011;45115;52.002;4.686;2023-05-20T13:26:46;4.72;;;3.20;;
59336;SDS011;45115;52.002;4.686;2023-05-20T13:29:13;5.55;;;2.95;;
59336;SDS011;45115;52.002;4.686;2023-05-20T13:31:41;5.65;;;3.15;;
59336;SDS011;45115;52.002;4.686;2023-05-20T13:34:08;8.77;;;3.17;;
59336;SDS011;45115;52.002;4.686;2023-05-20T13:36:35;5.80;;;3.10;;
59336;SDS011;45115;52.002;4.686;2023-05-20T13:39:02;5.35;;;3.25;;
59336;SDS011;45115;52.002;4.686;2023-05-20T13:41:28;5.10;;;2.72;;
59336;SDS011;45115;52.002;4.686;2023-05-20T13:43:55;4.82;;;2.80;;
59336;SDS011;45115;52.002;4.686;2023-05-20T13:46:21;5.97;;;2.70;;
59336;SDS011;45115;52.002;4.686;2023-05-20T13:48:49;4.55;;;2.92;;
59336;SDS011;45115;52.002;4.686;2023-05-20T13:51:16;4.20;;;2.70;;
59336;SDS011;45115;52.002;4.686;2023-05-20T13:53:43;6.63;;;2.67;;
59336;SDS011;45115;52.002;4.686;2023-05-20T13:56:09;4.10;;;2.80;;
59336;SDS011;45115;52.002;4.686;2023-05-20T13:58:36;5.05;;;2.95;;
59336;SDS011;45115;52.002;4.686;2023-05-20T14:01:03;5.43;;;2.75;;
59336;SDS011;45115;52.002;4.686;2023-05-20T14:03:30;4.68;;;3.00;;
59336;SDS011;45115;52.002;4.686;2023-05-20T14:05:59;3.47;;;2.65;;
59336;SDS011;45115;52.002;4.686;2023-05-20T14:08:26;4.90;;;2.72;;
59336;SDS011;45115;52.002;4.686;2023-05-20T14:10:53;5.43;;;2.85;;
59336;SDS011;45115;52.002;4.686;2023-05-20T14:13:20;6.22;;;2.97;;
59336;SDS011;45115;52.002;4.686;2023-05-20T14:15:46;4.68;;;2.80;;
59336;SDS011;45115;52.002;4.686;2023-05-20T14:18:14;7.97;;;3.42;;
59336;SDS011;45115;52.002;4.686;2023-05-20T14:20:41;4.53;;;2.63;;
59336;SDS011;45115;52.002;4.686;2023-05-20T14:23:09;4.20;;;3.05;;
59336;SDS011;45115;52.002;4.686;2023-05-20T14:25:36;4.63;;;2.90;;
59336;SDS011;45115;52.002;4.686;2023-05-20T14:28:03;5.32;;;2.85;;
59336;SDS011;45115;52.002;4.686;2023-05-20T14:30:30;4.07;;;2.60;;
59336;SDS011;45115;52.002;4.686;2023-05-20T14:32:56;6.63;;;3.00;;
59336;SDS011;45115;52.002;4.686;2023-05-20T14:35:23;3.35;;;2.78;;
59336;SDS011;45115;52.002;4.686;2023-05-20T14:37:51;4.40;;;2.63;;
59336;SDS011;45115;52.002;4.686;2023-05-20T14:40:19;4.10;;;2.70;;
59336;SDS011;45115;52.002;4.686;2023-05-20T14:42:46;7.45;;;2.92;;
59336;SDS011;45115;52.002;4.686;2023-05-20T14:45:12;5.72;;;2.88;;